Aérodrome :
LOGIN :

S'inscrire | Disclaimer

   EN    FR    IT 

 










Légende :    VFR   VFR Marginal   IFR   IFR Intensif   IFR Très Intensif
Visi : 
Plafond : 
>= 8 km
>= 3000ft
5 à 8 km
1000 à 3000 ft
1500m à 5 km
500 à 1000 ft
800 à 1500m
200 à 500 ft
< 800m
< 200 ft
Symboles :   Orages  Brouillard  Fortes neiges  Fortes précipitations  Vent > 20 kt
SIGMETs :   Divers  Orages  Givrage  Turbulence  Onde Orograph.  Cendres Volcan.






- Altitude de l'aérodrome : 821 ft
- Code IATA : LYS


LFLL - Lyon St Exupéry / Satolas

DERNIER METAR :
  • 151500Z 18011KT CAVOK 16/09 Q1010 NOSIG

METARs EXPIRÉS :
  • 151430Z 19008KT CAVOK 16/08 Q1010 NOSIG
  • 151400Z 18011KT CAVOK 16/09 Q1010 NOSIG
  • 151330Z 18011KT CAVOK 15/09 Q1010 NOSIG
  • 151300Z 19010KT CAVOK 16/08 Q1010 NOSIG
  • 151230Z 20012KT CAVOK 16/08 Q1010 NOSIG

TAF TAF LFLL
Valide du 15 à 12h jusqu'au 16 à 18h UTC


151100Z 1512/1618 19012KT CAVOK
TEMPO 1602/1607 18017G30KT
FM160700 18020G30KT CAVOK
TEMPO 1608/1617 18025G40KT
PROB40
TEMPO 1611/1616 18025G48KT



MET'MAP, la Météo Aéronautique d'un coup d'oeil ! - Copyright ORBIFLY Décembre 2007 - Disclaimer

ORBIFLY MET'MAP TEAM :

Programmation & Développement : Alexandra Zaïnal
Sur une idée originale de : Baudouin d'Aumeries
Assistance à la programmation : Marc-Olivier Méhu
Soutien technique & logistique : Manuel Goepfert

Contact : metmap@orbifly.com




SOURCES & CREDITS :

   NOAA